Montana City, Montana
Current Conditions -  °F | °C
As of 12:53 PM on Friday 19 Dec 2014 (Local Time) from KHLN Reporting Station
Few Clouds Few Clouds  
Wind Chill: 32°   Ceiling: Unl
Heat Index: 36°   Visibility: 10mi
Dew Point: 27°   Wind: 5mph
Humidity: 70%   Direction: 300°WNW
Pressure: 29.88"   Gusts: NA
Location:  46.4035°N, 112.119°W
Report Text: KHLN 191953Z 30004KT 10SM FEW100 02/M03 A2988 RMK AO2 SLP167 T00221028
Loading
Personal Weather Stations






























Interactive Weather Map New forecast layout! Learn more

10-Day Weather Forecast

Advertisements
Track Severe Weather on mobile